sensor_id;sensor_type;location;lat;lon;timestamp;P1;durP1;ratioP1;P2;durP2;ratioP2
12758;SDS011;20944;47.048;15.390;2024-02-21T00:01:37;2.63;;;1.40;;
12758;SDS011;20944;47.048;15.390;2024-02-21T00:04:05;3.60;;;1.17;;
12758;SDS011;20944;47.048;15.390;2024-02-21T00:06:34;1.50;;;0.87;;
12758;SDS011;20944;47.048;15.390;2024-02-21T00:09:02;0.97;;;0.80;;
12758;SDS011;20944;47.048;15.390;2024-02-21T00:11:30;1.57;;;0.87;;
12758;SDS011;20944;47.048;15.390;2024-02-21T00:13:59;3.75;;;1.20;;
12758;SDS011;20944;47.048;15.390;2024-02-21T00:16:28;3.50;;;1.33;;
12758;SDS011;20944;47.048;15.390;2024-02-21T00:19:07;1.50;;;0.70;;
12758;SDS011;20944;47.048;15.390;2024-02-21T00:21:41;2.03;;;0.97;;
12758;SDS011;20944;47.048;15.390;2024-02-21T00:24:12;2.93;;;0.90;;
12758;SDS011;20944;47.048;15.390;2024-02-21T00:26:46;2.97;;;1.10;;
12758;SDS011;20944;47.048;15.390;2024-02-21T00:29:16;1.13;;;0.83;;
12758;SDS011;20944;47.048;15.390;2024-02-21T00:31:46;1.40;;;0.83;;
12758;SDS011;20944;47.048;15.390;2024-02-21T00:34:20;2.60;;;1.10;;
12758;SDS011;20944;47.048;15.390;2024-02-21T00:36:52;2.43;;;0.90;;
12758;SDS011;20944;47.048;15.390;2024-02-21T00:39:28;2.10;;;0.90;;
12758;SDS011;20944;47.048;15.390;2024-02-21T00:41:59;1.67;;;0.83;;
12758;SDS011;20944;47.048;15.390;2024-02-21T00:44:32;2.10;;;0.90;;
12758;SDS011;20944;47.048;15.390;2024-02-21T00:47:00;1.73;;;1.10;;
12758;SDS011;20944;47.048;15.390;2024-02-21T00:49:30;2.50;;;0.93;;
12758;SDS011;20944;47.048;15.390;2024-02-21T00:51:59;2.37;;;1.30;;
12758;SDS011;20944;47.048;15.390;2024-02-21T00:54:27;1.27;;;0.70;;
12758;SDS011;20944;47.048;15.390;2024-02-21T00:57:12;4.37;;;1.47;;
12758;SDS011;20944;47.048;15.390;2024-02-21T00:59:40;1.77;;;1.20;;
12758;SDS011;20944;47.048;15.390;2024-02-21T01:02:09;3.17;;;1.13;;
12758;SDS011;20944;47.048;15.390;2024-02-21T01:04:39;1.73;;;0.97;;
12758;SDS011;20944;47.048;15.390;2024-02-21T01:07:07;4.77;;;1.60;;
12758;SDS011;20944;47.048;15.390;2024-02-21T01:09:35;2.50;;;1.57;;
12758;SDS011;20944;47.048;15.390;2024-02-21T01:12:04;3.40;;;1.50;;
12758;SDS011;20944;47.048;15.390;2024-02-21T01:14:32;2.60;;;1.50;;
12758;SDS011;20944;47.048;15.390;2024-02-21T01:17:00;4.63;;;1.63;;
12758;SDS011;20944;47.048;15.390;2024-02-21T01:19:29;2.00;;;1.30;;
12758;SDS011;20944;47.048;15.390;2024-02-21T01:21:58;2.17;;;1.30;;
12758;SDS011;20944;47.048;15.390;2024-02-21T01:24:27;3.33;;;1.53;;
12758;SDS011;20944;47.048;15.390;2024-02-21T01:26:55;1.80;;;1.20;;
12758;SDS011;20944;47.048;15.390;2024-02-21T01:29:23;2.93;;;1.80;;
12758;SDS011;20944;47.048;15.390;2024-02-21T01:31:51;3.57;;;1.93;;
12758;SDS011;20944;47.048;15.390;2024-02-21T01:34:20;2.23;;;1.33;;
12758;SDS011;20944;47.048;15.390;2024-02-21T01:36:48;5.17;;;1.70;;
12758;SDS011;20944;47.048;15.390;2024-02-21T01:39:18;3.30;;;1.30;;
12758;SDS011;20944;47.048;15.390;2024-02-21T01:41:46;3.43;;;1.40;;
12758;SDS011;20944;47.048;15.390;2024-02-21T01:44:14;2.10;;;1.40;;
12758;SDS011;20944;47.048;15.390;2024-02-21T01:46:43;3.60;;;1.33;;
12758;SDS011;20944;47.048;15.390;2024-02-21T01:49:11;2.43;;;1.20;;
12758;SDS011;20944;47.048;15.390;2024-02-21T01:51:40;3.03;;;1.17;;
12758;SDS011;20944;47.048;15.390;2024-02-21T01:54:08;5.73;;;1.40;;
12758;SDS011;20944;47.048;15.390;2024-02-21T01:56:40;3.53;;;1.50;;
12758;SDS011;20944;47.048;15.390;2024-02-21T01:59:08;3.77;;;1.40;;
12758;SDS011;20944;47.048;15.390;2024-02-21T02:01:37;1.70;;;1.20;;
12758;SDS011;20944;47.048;15.390;2024-02-21T02:04:06;2.73;;;1.17;;
12758;SDS011;20944;47.048;15.390;2024-02-21T02:06:35;3.50;;;1.53;;
12758;SDS011;20944;47.048;15.390;2024-02-21T02:09:03;4.20;;;1.10;;
12758;SDS011;20944;47.048;15.390;2024-02-21T02:11:32;3.07;;;1.43;;
12758;SDS011;20944;47.048;15.390;2024-02-21T02:14:02;2.60;;;1.27;;
12758;SDS011;20944;47.048;15.390;2024-02-21T02:16:30;2.50;;;1.30;;
12758;SDS011;20944;47.048;15.390;2024-02-21T02:18:59;3.80;;;1.60;;
12758;SDS011;20944;47.048;15.390;2024-02-21T02:21:29;1.90;;;1.13;;
12758;SDS011;20944;47.048;15.390;2024-02-21T02:24:01;5.30;;;2.00;;
12758;SDS011;20944;47.048;15.390;2024-02-21T02:26:29;5.90;;;1.80;;
12758;SDS011;20944;47.048;15.390;2024-02-21T02:28:58;4.07;;;1.67;;
12758;SDS011;20944;47.048;15.390;2024-02-21T02:31:27;3.30;;;1.77;;
12758;SDS011;20944;47.048;15.390;2024-02-21T02:33:55;4.53;;;1.83;;
12758;SDS011;20944;47.048;15.390;2024-02-21T02:36:24;3.37;;;1.43;;
12758;SDS011;20944;47.048;15.390;2024-02-21T02:38:52;3.80;;;1.70;;
12758;SDS011;20944;47.048;15.390;2024-02-21T02:41:22;4.73;;;1.90;;
12758;SDS011;20944;47.048;15.390;2024-02-21T02:43:50;3.90;;;1.73;;
12758;SDS011;20944;47.048;15.390;2024-02-21T02:46:19;3.77;;;2.10;;
12758;SDS011;20944;47.048;15.390;2024-02-21T02:48:47;5.37;;;2.33;;
12758;SDS011;20944;47.048;15.390;2024-02-21T02:51:15;4.10;;;1.97;;
12758;SDS011;20944;47.048;15.390;2024-02-21T02:53:44;3.37;;;1.80;;
12758;SDS011;20944;47.048;15.390;2024-02-21T02:56:14;6.00;;;1.67;;
12758;SDS011;20944;47.048;15.390;2024-02-21T02:58:44;6.67;;;1.80;;
12758;SDS011;20944;47.048;15.390;2024-02-21T03:01:13;2.37;;;1.70;;
12758;SDS011;20944;47.048;15.390;2024-02-21T03:03:41;3.60;;;2.23;;
12758;SDS011;20944;47.048;15.390;2024-02-21T03:06:12;5.93;;;2.10;;
12758;SDS011;20944;47.048;15.390;2024-02-21T03:08:40;6.60;;;2.20;;
12758;SDS011;20944;47.048;15.390;2024-02-21T03:11:09;3.87;;;1.87;;
12758;SDS011;20944;47.048;15.390;2024-02-21T03:13:38;3.83;;;2.30;;
12758;SDS011;20944;47.048;15.390;2024-02-21T03:16:07;5.07;;;2.30;;
12758;SDS011;20944;47.048;15.390;2024-02-21T03:18:36;8.83;;;2.97;;
12758;SDS011;20944;47.048;15.390;2024-02-21T03:21:04;6.63;;;2.70;;
12758;SDS011;20944;47.048;15.390;2024-02-21T03:23:32;5.47;;;2.77;;
12758;SDS011;20944;47.048;15.390;2024-02-21T03:26:01;7.70;;;2.73;;
12758;SDS011;20944;47.048;15.390;2024-02-21T03:28:29;5.33;;;2.47;;
12758;SDS011;20944;47.048;15.390;2024-02-21T03:30:57;5.90;;;2.60;;
12758;SDS011;20944;47.048;15.390;2024-02-21T03:33:27;6.53;;;2.77;;
12758;SDS011;20944;47.048;15.390;2024-02-21T03:35:55;5.30;;;2.73;;
12758;SDS011;20944;47.048;15.390;2024-02-21T03:38:23;5.07;;;2.80;;
12758;SDS011;20944;47.048;15.390;2024-02-21T03:40:52;4.60;;;2.57;;
12758;SDS011;20944;47.048;15.390;2024-02-21T03:43:20;4.60;;;2.43;;
12758;SDS011;20944;47.048;15.390;2024-02-21T03:45:48;6.40;;;2.80;;
12758;SDS011;20944;47.048;15.390;2024-02-21T03:48:17;4.07;;;2.30;;
12758;SDS011;20944;47.048;15.390;2024-02-21T03:50:46;4.73;;;2.57;;
12758;SDS011;20944;47.048;15.390;2024-02-21T03:53:14;4.97;;;2.70;;
12758;SDS011;20944;47.048;15.390;2024-02-21T03:55:43;8.43;;;2.70;;
12758;SDS011;20944;47.048;15.390;2024-02-21T03:58:11;5.17;;;2.63;;
12758;SDS011;20944;47.048;15.390;2024-02-21T04:00:39;8.10;;;4.00;;
12758;SDS011;20944;47.048;15.390;2024-02-21T04:03:07;5.33;;;2.57;;
12758;SDS011;20944;47.048;15.390;2024-02-21T04:05:36;5.90;;;3.20;;
12758;SDS011;20944;47.048;15.390;2024-02-21T04:08:06;6.17;;;2.97;;
12758;SDS011;20944;47.048;15.390;2024-02-21T04:10:34;4.67;;;2.70;;
12758;SDS011;20944;47.048;15.390;2024-02-21T04:13:03;8.43;;;2.90;;
12758;SDS011;20944;47.048;15.390;2024-02-21T04:15:34;5.10;;;2.77;;
12758;SDS011;20944;47.048;15.390;2024-02-21T04:18:02;4.83;;;3.00;;
12758;SDS011;20944;47.048;15.390;2024-02-21T04:20:30;4.20;;;3.10;;
12758;SDS011;20944;47.048;15.390;2024-02-21T04:22:59;6.20;;;3.47;;
12758;SDS011;20944;47.048;15.390;2024-02-21T04:25:29;5.23;;;2.70;;
12758;SDS011;20944;47.048;15.390;2024-02-21T04:27:57;4.37;;;2.47;;
12758;SDS011;20944;47.048;15.390;2024-02-21T04:30:25;5.77;;;3.27;;
12758;SDS011;20944;47.048;15.390;2024-02-21T04:32:54;5.23;;;3.40;;
12758;SDS011;20944;47.048;15.390;2024-02-21T04:35:22;5.13;;;2.70;;
12758;SDS011;20944;47.048;15.390;2024-02-21T04:37:50;3.70;;;3.10;;
12758;SDS011;20944;47.048;15.390;2024-02-21T04:40:19;3.73;;;2.73;;
12758;SDS011;20944;47.048;15.390;2024-02-21T04:42:48;7.87;;;3.00;;
12758;SDS011;20944;47.048;15.390;2024-02-21T04:45:17;6.63;;;3.73;;
12758;SDS011;20944;47.048;15.390;2024-02-21T04:47:45;5.73;;;3.20;;
12758;SDS011;20944;47.048;15.390;2024-02-21T04:50:13;8.33;;;3.07;;
12758;SDS011;20944;47.048;15.390;2024-02-21T04:52:42;3.50;;;2.30;;
12758;SDS011;20944;47.048;15.390;2024-02-21T04:55:10;5.83;;;3.23;;
12758;SDS011;20944;47.048;15.390;2024-02-21T04:57:39;4.60;;;3.00;;
12758;SDS011;20944;47.048;15.390;2024-02-21T05:00:09;6.90;;;3.53;;
12758;SDS011;20944;47.048;15.390;2024-02-21T05:02:38;4.87;;;2.63;;
12758;SDS011;20944;47.048;15.390;2024-02-21T05:05:06;7.73;;;2.90;;
12758;SDS011;20944;47.048;15.390;2024-02-21T05:07:35;5.43;;;2.60;;
12758;SDS011;20944;47.048;15.390;2024-02-21T05:10:04;4.83;;;2.83;;
12758;SDS011;20944;47.048;15.390;2024-02-21T05:12:34;4.97;;;2.60;;
12758;SDS011;20944;47.048;15.390;2024-02-21T05:15:03;6.93;;;2.93;;
12758;SDS011;20944;47.048;15.390;2024-02-21T05:17:33;6.00;;;2.80;;
12758;SDS011;20944;47.048;15.390;2024-02-21T05:20:02;7.53;;;3.30;;
12758;SDS011;20944;47.048;15.390;2024-02-21T05:22:30;3.97;;;3.03;;
12758;SDS011;20944;47.048;15.390;2024-02-21T05:24:59;7.03;;;2.40;;
12758;SDS011;20944;47.048;15.390;2024-02-21T05:27:27;5.60;;;3.30;;
12758;SDS011;20944;47.048;15.390;2024-02-21T05:29:55;4.87;;;2.87;;
12758;SDS011;20944;47.048;15.390;2024-02-21T05:32:25;5.27;;;2.80;;
12758;SDS011;20944;47.048;15.390;2024-02-21T05:34:55;7.27;;;2.73;;
12758;SDS011;20944;47.048;15.390;2024-02-21T05:37:24;4.53;;;2.37;;
12758;SDS011;20944;47.048;15.390;2024-02-21T05:39:53;3.50;;;2.60;;
12758;SDS011;20944;47.048;15.390;2024-02-21T05:42:21;5.73;;;2.43;;
12758;SDS011;20944;47.048;15.390;2024-02-21T05:44:49;4.63;;;2.37;;
12758;SDS011;20944;47.048;15.390;2024-02-21T05:47:18;6.93;;;2.83;;
12758;SDS011;20944;47.048;15.390;2024-02-21T05:49:47;4.27;;;3.23;;
12758;SDS011;20944;47.048;15.390;2024-02-21T05:52:17;4.10;;;2.13;;
12758;SDS011;20944;47.048;15.390;2024-02-21T05:54:45;4.17;;;2.40;;
12758;SDS011;20944;47.048;15.390;2024-02-21T05:57:17;6.07;;;2.33;;
12758;SDS011;20944;47.048;15.390;2024-02-21T05:59:45;3.10;;;1.70;;
12758;SDS011;20944;47.048;15.390;2024-02-21T06:02:13;3.57;;;2.50;;
12758;SDS011;20944;47.048;15.390;2024-02-21T06:04:42;3.77;;;2.30;;
12758;SDS011;20944;47.048;15.390;2024-02-21T06:07:11;3.27;;;1.97;;
12758;SDS011;20944;47.048;15.390;2024-02-21T06:09:41;6.03;;;2.37;;
12758;SDS011;20944;47.048;15.390;2024-02-21T06:12:10;5.33;;;2.60;;
12758;SDS011;20944;47.048;15.390;2024-02-21T06:14:39;7.00;;;2.20;;
12758;SDS011;20944;47.048;15.390;2024-02-21T06:17:07;5.20;;;1.43;;
12758;SDS011;20944;47.048;15.390;2024-02-21T06:19:35;3.17;;;2.00;;
12758;SDS011;20944;47.048;15.390;2024-02-21T06:22:03;3.63;;;1.47;;
12758;SDS011;20944;47.048;15.390;2024-02-21T06:24:34;11.73;;;2.60;;
12758;SDS011;20944;47.048;15.390;2024-02-21T06:27:04;4.53;;;1.67;;
12758;SDS011;20944;47.048;15.390;2024-02-21T06:29:36;3.47;;;1.57;;
12758;SDS011;20944;47.048;15.390;2024-02-21T06:32:05;3.80;;;1.47;;
12758;SDS011;20944;47.048;15.390;2024-02-21T06:34:33;5.57;;;1.40;;
12758;SDS011;20944;47.048;15.390;2024-02-21T06:37:02;4.63;;;2.27;;
12758;SDS011;20944;47.048;15.390;2024-02-21T06:39:30;6.80;;;2.20;;
12758;SDS011;20944;47.048;15.390;2024-02-21T06:41:59;4.03;;;2.27;;
12758;SDS011;20944;47.048;15.390;2024-02-21T06:44:30;4.80;;;1.70;;
12758;SDS011;20944;47.048;15.390;2024-02-21T06:47:03;6.27;;;1.97;;
12758;SDS011;20944;47.048;15.390;2024-02-21T06:49:32;6.13;;;1.87;;
12758;SDS011;20944;47.048;15.390;2024-02-21T06:52:00;4.00;;;2.10;;
12758;SDS011;20944;47.048;15.390;2024-02-21T06:54:28;6.00;;;1.50;;
12758;SDS011;20944;47.048;15.390;2024-02-21T06:56:56;1.77;;;1.30;;
12758;SDS011;20944;47.048;15.390;2024-02-21T06:59:25;3.43;;;1.87;;
12758;SDS011;20944;47.048;15.390;2024-02-21T07:01:54;6.60;;;1.93;;
12758;SDS011;20944;47.048;15.390;2024-02-21T07:04:23;3.40;;;1.80;;
12758;SDS011;20944;47.048;15.390;2024-02-21T07:06:52;2.50;;;1.70;;
12758;SDS011;20944;47.048;15.390;2024-02-21T07:09:20;4.03;;;1.80;;
12758;SDS011;20944;47.048;15.390;2024-02-21T07:11:50;2.60;;;1.77;;
12758;SDS011;20944;47.048;15.390;2024-02-21T07:14:18;2.43;;;1.70;;
12758;SDS011;20944;47.048;15.390;2024-02-21T07:16:47;5.70;;;2.27;;
12758;SDS011;20944;47.048;15.390;2024-02-21T07:19:17;3.30;;;2.03;;
12758;SDS011;20944;47.048;15.390;2024-02-21T07:21:46;7.03;;;2.00;;
12758;SDS011;20944;47.048;15.390;2024-02-21T07:24:14;8.73;;;2.10;;
12758;SDS011;20944;47.048;15.390;2024-02-21T07:26:42;9.90;;;2.03;;
12758;SDS011;20944;47.048;15.390;2024-02-21T07:29:11;7.20;;;2.33;;
12758;SDS011;20944;47.048;15.390;2024-02-21T07:31:40;6.40;;;2.13;;
12758;SDS011;20944;47.048;15.390;2024-02-21T07:34:08;6.75;;;2.75;;
12758;SDS011;20944;47.048;15.390;2024-02-21T07:36:39;5.43;;;2.43;;
12758;SDS011;20944;47.048;15.390;2024-02-21T07:39:09;4.47;;;1.80;;
12758;SDS011;20944;47.048;15.390;2024-02-21T07:41:38;4.83;;;2.33;;
12758;SDS011;20944;47.048;15.390;2024-02-21T07:44:07;4.73;;;2.27;;
12758;SDS011;20944;47.048;15.390;2024-02-21T07:46:36;4.27;;;2.50;;
12758;SDS011;20944;47.048;15.390;2024-02-21T07:49:04;3.00;;;1.97;;
12758;SDS011;20944;47.048;15.390;2024-02-21T07:51:32;4.83;;;2.33;;
12758;SDS011;20944;47.048;15.390;2024-02-21T07:54:05;11.57;;;2.50;;
12758;SDS011;20944;47.048;15.390;2024-02-21T07:56:36;4.47;;;2.03;;
12758;SDS011;20944;47.048;15.390;2024-02-21T07:59:05;3.73;;;2.23;;
12758;SDS011;20944;47.048;15.390;2024-02-21T08:01:34;6.67;;;2.90;;
12758;SDS011;20944;47.048;15.390;2024-02-21T08:04:02;6.07;;;2.50;;
12758;SDS011;20944;47.048;15.390;2024-02-21T08:06:31;7.07;;;2.33;;
12758;SDS011;20944;47.048;15.390;2024-02-21T08:08:59;7.30;;;2.10;;
12758;SDS011;20944;47.048;15.390;2024-02-21T08:11:30;2.80;;;1.87;;
12758;SDS011;20944;47.048;15.390;2024-02-21T08:13:59;3.60;;;1.87;;
12758;SDS011;20944;47.048;15.390;2024-02-21T08:16:27;2.63;;;2.03;;
12758;SDS011;20944;47.048;15.390;2024-02-21T08:18:55;5.77;;;2.73;;
12758;SDS011;20944;47.048;15.390;2024-02-21T08:21:24;3.97;;;2.33;;
12758;SDS011;20944;47.048;15.390;2024-02-21T08:23:52;7.83;;;2.43;;
12758;SDS011;20944;47.048;15.390;2024-02-21T08:26:21;4.57;;;2.40;;
12758;SDS011;20944;47.048;15.390;2024-02-21T08:28:50;2.77;;;2.07;;
12758;SDS011;20944;47.048;15.390;2024-02-21T08:31:19;3.50;;;2.47;;
12758;SDS011;20944;47.048;15.390;2024-02-21T08:33:47;6.50;;;1.97;;
12758;SDS011;20944;47.048;15.390;2024-02-21T08:36:18;5.87;;;2.00;;
12758;SDS011;20944;47.048;15.390;2024-02-21T08:38:46;3.20;;;1.47;;
12758;SDS011;20944;47.048;15.390;2024-02-21T08:41:15;3.40;;;1.70;;
12758;SDS011;20944;47.048;15.390;2024-02-21T08:43:43;3.87;;;1.87;;
12758;SDS011;20944;47.048;15.390;2024-02-21T08:46:13;4.20;;;1.83;;
12758;SDS011;20944;47.048;15.390;2024-02-21T08:48:41;3.40;;;1.60;;
12758;SDS011;20944;47.048;15.390;2024-02-21T08:51:12;3.63;;;1.50;;
12758;SDS011;20944;47.048;15.390;2024-02-21T08:53:40;3.70;;;1.83;;
12758;SDS011;20944;47.048;15.390;2024-02-21T08:56:09;4.83;;;1.83;;
12758;SDS011;20944;47.048;15.390;2024-02-21T08:58:38;3.90;;;1.63;;
12758;SDS011;20944;47.048;15.390;2024-02-21T09:01:07;1.87;;;1.50;;
12758;SDS011;20944;47.048;15.390;2024-02-21T09:03:38;3.13;;;1.60;;
12758;SDS011;20944;47.048;15.390;2024-02-21T09:06:09;4.80;;;1.80;;
12758;SDS011;20944;47.048;15.390;2024-02-21T09:08:40;3.40;;;1.67;;
12758;SDS011;20944;47.048;15.390;2024-02-21T09:11:08;2.17;;;1.40;;
12758;SDS011;20944;47.048;15.390;2024-02-21T09:13:37;4.83;;;1.77;;
12758;SDS011;20944;47.048;15.390;2024-02-21T09:16:06;2.07;;;1.50;;
12758;SDS011;20944;47.048;15.390;2024-02-21T09:18:35;4.53;;;1.40;;
12758;SDS011;20944;47.048;15.390;2024-02-21T09:21:05;2.87;;;1.33;;
12758;SDS011;20944;47.048;15.390;2024-02-21T09:23:33;1.83;;;1.40;;
12758;SDS011;20944;47.048;15.390;2024-02-21T09:26:02;2.97;;;1.47;;
12758;SDS011;20944;47.048;15.390;2024-02-21T09:28:31;1.63;;;0.90;;
12758;SDS011;20944;47.048;15.390;2024-02-21T09:31:01;2.60;;;1.40;;
12758;SDS011;20944;47.048;15.390;2024-02-21T09:33:29;1.77;;;0.97;;
12758;SDS011;20944;47.048;15.390;2024-02-21T09:36:00;4.33;;;1.50;;
12758;SDS011;20944;47.048;15.390;2024-02-21T09:38:29;2.73;;;0.97;;
12758;SDS011;20944;47.048;15.390;2024-02-21T09:40:58;5.10;;;1.10;;
12758;SDS011;20944;47.048;15.390;2024-02-21T09:43:28;4.27;;;1.57;;
12758;SDS011;20944;47.048;15.390;2024-02-21T09:45:57;2.27;;;1.27;;
12758;SDS011;20944;47.048;15.390;2024-02-21T09:48:30;3.33;;;1.47;;
12758;SDS011;20944;47.048;15.390;2024-02-21T09:51:12;3.07;;;1.50;;
12758;SDS011;20944;47.048;15.390;2024-02-21T09:53:42;3.33;;;1.90;;
12758;SDS011;20944;47.048;15.390;2024-02-21T09:56:27;5.50;;;2.23;;
12758;SDS011;20944;47.048;15.390;2024-02-21T09:58:56;4.73;;;2.40;;
12758;SDS011;20944;47.048;15.390;2024-02-21T10:01:26;8.10;;;3.00;;
12758;SDS011;20944;47.048;15.390;2024-02-21T10:04:00;7.03;;;3.00;;
12758;SDS011;20944;47.048;15.390;2024-02-21T10:06:32;8.00;;;2.33;;
12758;SDS011;20944;47.048;15.390;2024-02-21T10:09:03;5.80;;;2.20;;
12758;SDS011;20944;47.048;15.390;2024-02-21T10:11:33;8.27;;;2.53;;
12758;SDS011;20944;47.048;15.390;2024-02-21T10:14:03;6.17;;;3.00;;
12758;SDS011;20944;47.048;15.390;2024-02-21T10:16:32;11.03;;;2.67;;
12758;SDS011;20944;47.048;15.390;2024-02-21T10:19:01;9.17;;;2.13;;
12758;SDS011;20944;47.048;15.390;2024-02-21T10:21:30;5.40;;;2.43;;
12758;SDS011;20944;47.048;15.390;2024-02-21T10:24:00;11.07;;;2.13;;
12758;SDS011;20944;47.048;15.390;2024-02-21T10:26:28;4.30;;;2.13;;
12758;SDS011;20944;47.048;15.390;2024-02-21T10:28:57;4.90;;;2.30;;
12758;SDS011;20944;47.048;15.390;2024-02-21T10:31:26;5.23;;;2.03;;
12758;SDS011;20944;47.048;15.390;2024-02-21T10:33:55;5.13;;;2.20;;
12758;SDS011;20944;47.048;15.390;2024-02-21T10:36:24;4.57;;;2.13;;
12758;SDS011;20944;47.048;15.390;2024-02-21T10:38:53;3.63;;;2.23;;
12758;SDS011;20944;47.048;15.390;2024-02-21T10:41:24;6.30;;;2.03;;
12758;SDS011;20944;47.048;15.390;2024-02-21T10:43:54;8.57;;;2.07;;
12758;SDS011;20944;47.048;15.390;2024-02-21T10:46:23;4.03;;;1.80;;
12758;SDS011;20944;47.048;15.390;2024-02-21T10:48:55;3.07;;;1.20;;
12758;SDS011;20944;47.048;15.390;2024-02-21T10:51:33;3.10;;;1.07;;
12758;SDS011;20944;47.048;15.390;2024-02-21T10:54:06;2.00;;;0.90;;
12758;SDS011;20944;47.048;15.390;2024-02-21T10:56:47;1.07;;;0.80;;
12758;SDS011;20944;47.048;15.390;2024-02-21T10:59:18;4.83;;;0.90;;
12758;SDS011;20944;47.048;15.390;2024-02-21T11:01:48;1.47;;;0.70;;
12758;SDS011;20944;47.048;15.390;2024-02-21T11:04:16;6.80;;;0.97;;
12758;SDS011;20944;47.048;15.390;2024-02-21T11:06:45;3.13;;;0.87;;
12758;SDS011;20944;47.048;15.390;2024-02-21T11:09:14;6.20;;;0.80;;
12758;SDS011;20944;47.048;15.390;2024-02-21T11:11:43;2.27;;;1.00;;
12758;SDS011;20944;47.048;15.390;2024-02-21T11:14:19;4.73;;;0.90;;
12758;SDS011;20944;47.048;15.390;2024-02-21T11:16:48;1.47;;;0.97;;
12758;SDS011;20944;47.048;15.390;2024-02-21T11:19:20;4.20;;;0.83;;
12758;SDS011;20944;47.048;15.390;2024-02-21T11:21:50;3.70;;;0.70;;
12758;SDS011;20944;47.048;15.390;2024-02-21T11:24:26;3.90;;;0.80;;
12758;SDS011;20944;47.048;15.390;2024-02-21T11:26:56;1.77;;;0.70;;
12758;SDS011;20944;47.048;15.390;2024-02-21T11:29:40;3.93;;;0.90;;
12758;SDS011;20944;47.048;15.390;2024-02-21T11:32:10;1.33;;;0.77;;
12758;SDS011;20944;47.048;15.390;2024-02-21T11:34:40;1.90;;;0.90;;
12758;SDS011;20944;47.048;15.390;2024-02-21T11:37:15;2.83;;;1.07;;
12758;SDS011;20944;47.048;15.390;2024-02-21T11:39:43;2.73;;;1.27;;
12758;SDS011;20944;47.048;15.390;2024-02-21T11:42:12;1.53;;;0.80;;
12758;SDS011;20944;47.048;15.390;2024-02-21T11:44:41;3.77;;;0.80;;
12758;SDS011;20944;47.048;15.390;2024-02-21T11:47:10;3.07;;;0.80;;
12758;SDS011;20944;47.048;15.390;2024-02-21T11:49:39;2.10;;;0.87;;
12758;SDS011;20944;47.048;15.390;2024-02-21T11:52:13;1.30;;;0.67;;
12758;SDS011;20944;47.048;15.390;2024-02-21T11:54:42;3.83;;;0.63;;
12758;SDS011;20944;47.048;15.390;2024-02-21T11:57:10;1.43;;;0.60;;
12758;SDS011;20944;47.048;15.390;2024-02-21T11:59:39;2.80;;;0.97;;
12758;SDS011;20944;47.048;15.390;2024-02-21T12:02:09;2.17;;;0.50;;
12758;SDS011;20944;47.048;15.390;2024-02-21T12:04:38;2.10;;;0.40;;
12758;SDS011;20944;47.048;15.390;2024-02-21T12:07:06;2.13;;;0.70;;
12758;SDS011;20944;47.048;15.390;2024-02-21T12:09:35;3.63;;;0.40;;
12758;SDS011;20944;47.048;15.390;2024-02-21T12:12:04;4.37;;;0.80;;
12758;SDS011;20944;47.048;15.390;2024-02-21T12:14:34;3.00;;;0.77;;
12758;SDS011;20944;47.048;15.390;2024-02-21T12:17:04;2.07;;;0.50;;
12758;SDS011;20944;47.048;15.390;2024-02-21T12:19:34;2.07;;;0.60;;
12758;SDS011;20944;47.048;15.390;2024-02-21T12:22:02;0.70;;;0.40;;
12758;SDS011;20944;47.048;15.390;2024-02-21T12:24:33;1.13;;;0.53;;
12758;SDS011;20944;47.048;15.390;2024-02-21T12:27:02;1.00;;;0.60;;
12758;SDS011;20944;47.048;15.390;2024-02-21T12:29:32;0.60;;;0.40;;
12758;SDS011;20944;47.048;15.390;2024-02-21T12:32:00;4.43;;;0.60;;
12758;SDS011;20944;47.048;15.390;2024-02-21T12:34:30;2.20;;;0.53;;
12758;SDS011;20944;47.048;15.390;2024-02-21T12:37:19;2.97;;;0.60;;
12758;SDS011;20944;47.048;15.390;2024-02-21T12:39:49;3.30;;;0.80;;
12758;SDS011;20944;47.048;15.390;2024-02-21T12:42:17;0.70;;;0.70;;
12758;SDS011;20944;47.048;15.390;2024-02-21T12:44:46;1.30;;;0.60;;
12758;SDS011;20944;47.048;15.390;2024-02-21T12:47:14;2.20;;;0.53;;
12758;SDS011;20944;47.048;15.390;2024-02-21T12:49:42;1.07;;;0.50;;
12758;SDS011;20944;47.048;15.390;2024-02-21T12:52:12;3.90;;;0.60;;
12758;SDS011;20944;47.048;15.390;2024-02-21T12:54:42;1.23;;;0.50;;
12758;SDS011;20944;47.048;15.390;2024-02-21T12:57:10;2.00;;;0.53;;
12758;SDS011;20944;47.048;15.390;2024-02-21T12:59:39;2.57;;;0.57;;
12758;SDS011;20944;47.048;15.390;2024-02-21T13:02:07;3.10;;;0.60;;
12758;SDS011;20944;47.048;15.390;2024-02-21T13:04:36;0.60;;;0.30;;
12758;SDS011;20944;47.048;15.390;2024-02-21T13:07:07;1.10;;;0.40;;
12758;SDS011;20944;47.048;15.390;2024-02-21T13:09:35;1.45;;;0.50;;
12758;SDS011;20944;47.048;15.390;2024-02-21T13:12:05;0.93;;;0.65;;
12758;SDS011;20944;47.048;15.390;2024-02-21T13:14:34;0.38;;;0.30;;
12758;SDS011;20944;47.048;15.390;2024-02-21T13:17:05;0.82;;;0.40;;
12758;SDS011;20944;47.048;15.390;2024-02-21T13:19:34;2.53;;;0.47;;
12758;SDS011;20944;47.048;15.390;2024-02-21T13:22:02;0.52;;;0.30;;
12758;SDS011;20944;47.048;15.390;2024-02-21T13:24:31;2.33;;;0.63;;
12758;SDS011;20944;47.048;15.390;2024-02-21T13:26:59;1.05;;;0.55;;
12758;SDS011;20944;47.048;15.390;2024-02-21T13:29:29;1.27;;;0.40;;
12758;SDS011;20944;47.048;15.390;2024-02-21T13:31:57;2.58;;;0.47;;
12758;SDS011;20944;47.048;15.390;2024-02-21T13:34:26;0.20;;;0.20;;
12758;SDS011;20944;47.048;15.390;2024-02-21T13:36:55;0.95;;;0.35;;
12758;SDS011;20944;47.048;15.390;2024-02-21T13:39:23;0.52;;;0.30;;
12758;SDS011;20944;47.048;15.390;2024-02-21T13:41:51;0.32;;;0.30;;
12758;SDS011;20944;47.048;15.390;2024-02-21T13:44:20;1.15;;;0.30;;
12758;SDS011;20944;47.048;15.390;2024-02-21T13:46:50;0.30;;;0.30;;
12758;SDS011;20944;47.048;15.390;2024-02-21T13:49:18;0.30;;;0.30;;
12758;SDS011;20944;47.048;15.390;2024-02-21T13:51:46;0.50;;;0.30;;
12758;SDS011;20944;47.048;15.390;2024-02-21T13:54:15;0.30;;;0.30;;
12758;SDS011;20944;47.048;15.390;2024-02-21T13:56:45;2.28;;;0.32;;
12758;SDS011;20944;47.048;15.390;2024-02-21T13:59:15;1.57;;;0.30;;
12758;SDS011;20944;47.048;15.390;2024-02-21T14:01:44;0.53;;;0.40;;
12758;SDS011;20944;47.048;15.390;2024-02-21T14:04:14;1.70;;;0.37;;
12758;SDS011;20944;47.048;15.390;2024-02-21T14:06:42;1.60;;;0.20;;
12758;SDS011;20944;47.048;15.390;2024-02-21T14:09:11;1.03;;;0.30;;
12758;SDS011;20944;47.048;15.390;2024-02-21T14:11:39;0.97;;;0.40;;
12758;SDS011;20944;47.048;15.390;2024-02-21T14:14:08;0.70;;;0.27;;
12758;SDS011;20944;47.048;15.390;2024-02-21T14:16:37;0.60;;;0.30;;
12758;SDS011;20944;47.048;15.390;2024-02-21T14:19:05;0.40;;;0.33;;
12758;SDS011;20944;47.048;15.390;2024-02-21T14:21:36;0.80;;;0.33;;
12758;SDS011;20944;47.048;15.390;2024-02-21T14:24:05;0.40;;;0.30;;
12758;SDS011;20944;47.048;15.390;2024-02-21T14:26:34;1.23;;;0.60;;
12758;SDS011;20944;47.048;15.390;2024-02-21T14:29:03;0.40;;;0.40;;
12758;SDS011;20944;47.048;15.390;2024-02-21T14:31:32;2.40;;;0.37;;
12758;SDS011;20944;47.048;15.390;2024-02-21T14:34:00;0.30;;;0.30;;
12758;SDS011;20944;47.048;15.390;2024-02-21T14:36:29;0.30;;;0.30;;
12758;SDS011;20944;47.048;15.390;2024-02-21T14:39:01;1.15;;;0.43;;
12758;SDS011;20944;47.048;15.390;2024-02-21T14:41:29;0.60;;;0.30;;
12758;SDS011;20944;47.048;15.390;2024-02-21T14:43:57;0.70;;;0.40;;
12758;SDS011;20944;47.048;15.390;2024-02-21T14:46:30;1.40;;;0.40;;